sensor_id;sensor_type;location;lat;lon;timestamp;P1;durP1;ratioP1;P2;durP2;ratioP2
77168;SDS011;66281;45.114;20.730;2023-01-31T00:05:27;67.43;;;26.95;;
77168;SDS011;66281;45.114;20.730;2023-01-31T00:15:27;70.90;;;27.65;;
77168;SDS011;66281;45.114;20.730;2023-01-31T00:25:28;41.10;;;15.03;;
77168;SDS011;66281;45.114;20.730;2023-01-31T00:35:28;66.53;;;28.25;;
77168;SDS011;66281;45.114;20.730;2023-01-31T00:45:29;65.90;;;25.02;;
77168;SDS011;66281;45.114;20.730;2023-01-31T00:55:30;54.00;;;20.83;;
77168;SDS011;66281;45.114;20.730;2023-01-31T01:05:31;48.53;;;20.57;;
77168;SDS011;66281;45.114;20.730;2023-01-31T01:15:32;44.92;;;20.02;;
77168;SDS011;66281;45.114;20.730;2023-01-31T01:25:43;47.87;;;18.90;;
77168;SDS011;66281;45.114;20.730;2023-01-31T01:35:44;49.00;;;20.08;;
77168;SDS011;66281;45.114;20.730;2023-01-31T01:45:44;50.13;;;21.10;;
77168;SDS011;66281;45.114;20.730;2023-01-31T01:55:46;45.22;;;19.92;;
77168;SDS011;66281;45.114;20.730;2023-01-31T02:05:59;37.35;;;17.40;;
77168;SDS011;66281;45.114;20.730;2023-01-31T02:16:01;42.53;;;18.20;;
77168;SDS011;66281;45.114;20.730;2023-01-31T02:46:57;36.58;;;16.08;;
77168;SDS011;66281;45.114;20.730;2023-01-31T02:57:01;27.60;;;13.47;;
77168;SDS011;66281;45.114;20.730;2023-01-31T03:07:04;24.50;;;11.27;;
77168;SDS011;66281;45.114;20.730;2023-01-31T03:27:33;18.93;;;8.27;;
77168;SDS011;66281;45.114;20.730;2023-01-31T03:37:46;17.23;;;7.83;;
77168;SDS011;66281;45.114;20.730;2023-01-31T03:47:55;13.23;;;6.93;;
77168;SDS011;66281;45.114;20.730;2023-01-31T03:57:57;15.07;;;6.37;;
77168;SDS011;66281;45.114;20.730;2023-01-31T04:07:59;18.00;;;7.07;;
77168;SDS011;66281;45.114;20.730;2023-01-31T04:18:02;13.80;;;6.63;;
77168;SDS011;66281;45.114;20.730;2023-01-31T04:28:03;13.15;;;5.55;;
77168;SDS011;66281;45.114;20.730;2023-01-31T04:38:03;13.17;;;5.63;;
77168;SDS011;66281;45.114;20.730;2023-01-31T04:48:04;12.38;;;5.38;;
77168;SDS011;66281;45.114;20.730;2023-01-31T04:58:05;12.23;;;5.77;;
77168;SDS011;66281;45.114;20.730;2023-01-31T05:08:06;9.48;;;4.63;;
77168;SDS011;66281;45.114;20.730;2023-01-31T05:18:07;11.77;;;5.83;;
77168;SDS011;66281;45.114;20.730;2023-01-31T05:28:07;13.00;;;6.15;;
77168;SDS011;66281;45.114;20.730;2023-01-31T05:38:08;12.60;;;6.23;;
77168;SDS011;66281;45.114;20.730;2023-01-31T05:48:09;9.97;;;5.23;;
77168;SDS011;66281;45.114;20.730;2023-01-31T05:58:10;9.97;;;4.97;;
77168;SDS011;66281;45.114;20.730;2023-01-31T06:08:10;7.90;;;4.50;;
77168;SDS011;66281;45.114;20.730;2023-01-31T06:18:11;16.63;;;6.43;;
77168;SDS011;66281;45.114;20.730;2023-01-31T06:28:11;15.85;;;7.22;;
77168;SDS011;66281;45.114;20.730;2023-01-31T06:38:12;13.33;;;7.10;;
77168;SDS011;66281;45.114;20.730;2023-01-31T06:48:12;13.73;;;5.90;;
77168;SDS011;66281;45.114;20.730;2023-01-31T06:58:13;12.80;;;6.03;;
77168;SDS011;66281;45.114;20.730;2023-01-31T07:08:13;10.60;;;4.97;;
77168;SDS011;66281;45.114;20.730;2023-01-31T07:18:14;14.35;;;7.15;;
77168;SDS011;66281;45.114;20.730;2023-01-31T07:28:14;24.83;;;10.85;;
77168;SDS011;66281;45.114;20.730;2023-01-31T07:38:15;16.40;;;9.23;;
77168;SDS011;66281;45.114;20.730;2023-01-31T07:48:15;14.23;;;7.17;;
77168;SDS011;66281;45.114;20.730;2023-01-31T07:58:16;16.80;;;8.60;;
77168;SDS011;66281;45.114;20.730;2023-01-31T08:08:16;12.00;;;6.87;;
77168;SDS011;66281;45.114;20.730;2023-01-31T08:18:17;16.58;;;7.63;;
77168;SDS011;66281;45.114;20.730;2023-01-31T08:28:17;15.82;;;7.95;;
77168;SDS011;66281;45.114;20.730;2023-01-31T08:38:18;14.32;;;6.55;;
77168;SDS011;66281;45.114;20.730;2023-01-31T08:48:18;9.52;;;4.95;;
77168;SDS011;66281;45.114;20.730;2023-01-31T08:58:20;15.13;;;5.50;;
77168;SDS011;66281;45.114;20.730;2023-01-31T09:08:20;12.18;;;5.63;;
77168;SDS011;66281;45.114;20.730;2023-01-31T09:18:21;16.20;;;8.53;;
77168;SDS011;66281;45.114;20.730;2023-01-31T09:28:22;12.85;;;6.30;;
77168;SDS011;66281;45.114;20.730;2023-01-31T09:38:23;17.37;;;7.13;;
77168;SDS011;66281;45.114;20.730;2023-01-31T09:48:25;17.83;;;7.03;;
77168;SDS011;66281;45.114;20.730;2023-01-31T09:58:34;13.90;;;5.97;;
77168;SDS011;66281;45.114;20.730;2023-01-31T10:19:16;9.37;;;3.80;;
77168;SDS011;66281;45.114;20.730;2023-01-31T10:29:23;14.20;;;5.60;;
77168;SDS011;66281;45.114;20.730;2023-01-31T10:39:39;13.83;;;5.80;;
77168;SDS011;66281;45.114;20.730;2023-01-31T10:49:45;30.37;;;12.93;;
77168;SDS011;66281;45.114;20.730;2023-01-31T10:59:48;73.43;;;28.40;;
77168;SDS011;66281;45.114;20.730;2023-01-31T11:09:50;16.47;;;8.20;;
77168;SDS011;66281;45.114;20.730;2023-01-31T11:19:53;10.60;;;5.13;;
77168;SDS011;66281;45.114;20.730;2023-01-31T11:29:54;18.73;;;7.20;;
77168;SDS011;66281;45.114;20.730;2023-01-31T11:39:56;52.60;;;20.10;;
77168;SDS011;66281;45.114;20.730;2023-01-31T11:49:58;34.90;;;13.03;;
77168;SDS011;66281;45.114;20.730;2023-01-31T12:00:02;45.27;;;14.93;;
77168;SDS011;66281;45.114;20.730;2023-01-31T12:30:58;161.23;;;43.70;;
77168;SDS011;66281;45.114;20.730;2023-01-31T13:01:47;43.03;;;13.93;;
77168;SDS011;66281;45.114;20.730;2023-01-31T13:12:19;80.00;;;28.20;;
77168;SDS011;66281;45.114;20.730;2023-01-31T13:22:22;22.38;;;8.88;;
77168;SDS011;66281;45.114;20.730;2023-01-31T13:32:28;14.87;;;5.30;;
77168;SDS011;66281;45.114;20.730;2023-01-31T13:42:35;26.70;;;8.30;;
77168;SDS011;66281;45.114;20.730;2023-01-31T13:52:40;17.95;;;8.90;;
77168;SDS011;66281;45.114;20.730;2023-01-31T14:03:05;15.70;;;6.43;;
77168;SDS011;66281;45.114;20.730;2023-01-31T14:13:22;11.25;;;5.32;;
77168;SDS011;66281;45.114;20.730;2023-01-31T14:23:53;22.87;;;7.17;;
77168;SDS011;66281;45.114;20.730;2023-01-31T14:33:53;14.60;;;6.50;;
77168;SDS011;66281;45.114;20.730;2023-01-31T14:44:11;14.25;;;7.80;;
77168;SDS011;66281;45.114;20.730;2023-01-31T15:05:10;22.70;;;6.80;;
77168;SDS011;66281;45.114;20.730;2023-01-31T15:15:37;14.43;;;6.32;;
77168;SDS011;66281;45.114;20.730;2023-01-31T15:25:44;16.90;;;5.50;;
77168;SDS011;66281;45.114;20.730;2023-01-31T15:35:55;12.73;;;7.23;;
77168;SDS011;66281;45.114;20.730;2023-01-31T15:45:59;20.80;;;10.17;;
77168;SDS011;66281;45.114;20.730;2023-01-31T15:56:22;31.13;;;11.80;;
77168;SDS011;66281;45.114;20.730;2023-01-31T16:06:33;21.70;;;10.10;;
77168;SDS011;66281;45.114;20.730;2023-01-31T16:16:35;35.70;;;14.13;;
77168;SDS011;66281;45.114;20.730;2023-01-31T16:26:36;34.27;;;14.23;;
77168;SDS011;66281;45.114;20.730;2023-01-31T16:46:54;25.23;;;11.60;;
77168;SDS011;66281;45.114;20.730;2023-01-31T17:07:02;28.67;;;17.10;;
77168;SDS011;66281;45.114;20.730;2023-01-31T17:17:05;31.60;;;15.43;;
77168;SDS011;66281;45.114;20.730;2023-01-31T17:27:07;24.40;;;10.43;;
77168;SDS011;66281;45.114;20.730;2023-01-31T17:37:11;22.53;;;10.30;;
77168;SDS011;66281;45.114;20.730;2023-01-31T17:47:12;28.00;;;11.03;;
77168;SDS011;66281;45.114;20.730;2023-01-31T17:57:13;54.37;;;20.47;;
77168;SDS011;66281;45.114;20.730;2023-01-31T18:07:14;45.95;;;18.50;;
77168;SDS011;66281;45.114;20.730;2023-01-31T18:17:15;85.73;;;29.27;;
77168;SDS011;66281;45.114;20.730;2023-01-31T18:27:15;117.45;;;34.17;;
77168;SDS011;66281;45.114;20.730;2023-01-31T18:37:16;59.55;;;22.65;;
77168;SDS011;66281;45.114;20.730;2023-01-31T18:47:16;33.38;;;14.13;;
77168;SDS011;66281;45.114;20.730;2023-01-31T18:57:17;20.77;;;10.95;;
77168;SDS011;66281;45.114;20.730;2023-01-31T19:07:17;20.63;;;8.33;;
77168;SDS011;66281;45.114;20.730;2023-01-31T19:17:18;15.60;;;6.60;;
77168;SDS011;66281;45.114;20.730;2023-01-31T19:27:18;28.02;;;11.75;;
77168;SDS011;66281;45.114;20.730;2023-01-31T19:37:19;43.28;;;18.23;;
77168;SDS011;66281;45.114;20.730;2023-01-31T19:47:19;41.60;;;20.48;;
77168;SDS011;66281;45.114;20.730;2023-01-31T19:57:20;58.67;;;22.87;;
77168;SDS011;66281;45.114;20.730;2023-01-31T20:07:20;50.00;;;17.23;;
77168;SDS011;66281;45.114;20.730;2023-01-31T20:17:21;43.33;;;26.87;;
77168;SDS011;66281;45.114;20.730;2023-01-31T20:27:25;45.67;;;20.30;;
77168;SDS011;66281;45.114;20.730;2023-01-31T20:37:26;26.70;;;12.50;;
77168;SDS011;66281;45.114;20.730;2023-01-31T20:47:27;23.80;;;11.57;;
77168;SDS011;66281;45.114;20.730;2023-01-31T20:57:28;89.03;;;33.63;;
77168;SDS011;66281;45.114;20.730;2023-01-31T21:07:28;33.35;;;14.20;;
77168;SDS011;66281;45.114;20.730;2023-01-31T21:17:29;33.60;;;16.47;;
77168;SDS011;66281;45.114;20.730;2023-01-31T21:27:30;57.93;;;23.23;;
77168;SDS011;66281;45.114;20.730;2023-01-31T21:37:30;50.55;;;23.25;;
77168;SDS011;66281;45.114;20.730;2023-01-31T21:47:31;45.70;;;23.03;;
77168;SDS011;66281;45.114;20.730;2023-01-31T21:57:31;43.83;;;18.88;;
77168;SDS011;66281;45.114;20.730;2023-01-31T22:07:31;46.22;;;19.77;;
77168;SDS011;66281;45.114;20.730;2023-01-31T22:17:32;38.15;;;16.52;;
77168;SDS011;66281;45.114;20.730;2023-01-31T22:27:32;31.17;;;12.48;;
77168;SDS011;66281;45.114;20.730;2023-01-31T22:37:33;26.37;;;11.00;;
77168;SDS011;66281;45.114;20.730;2023-01-31T22:47:33;24.80;;;12.85;;
77168;SDS011;66281;45.114;20.730;2023-01-31T22:57:34;19.33;;;10.35;;
77168;SDS011;66281;45.114;20.730;2023-01-31T23:07:34;24.02;;;12.55;;
77168;SDS011;66281;45.114;20.730;2023-01-31T23:17:35;21.23;;;11.75;;
77168;SDS011;66281;45.114;20.730;2023-01-31T23:27:36;27.43;;;13.63;;
77168;SDS011;66281;45.114;20.730;2023-01-31T23:37:37;16.33;;;9.27;;
77168;SDS011;66281;45.114;20.730;2023-01-31T23:47:37;13.20;;;8.18;;
77168;SDS011;66281;45.114;20.730;2023-01-31T23:57:38;21.30;;;11.07;;
